sensor_id;sensor_type;location;lat;lon;timestamp;pressure;altitude;pressure_sealevel;temperature;humidity
69187;BME280;56301;56.864;60.554;2023-06-14T00:00:23;99182.94;;;23.69;45.09
69187;BME280;56301;56.864;60.554;2023-06-14T00:02:46;99188.31;;;23.69;44.88
69187;BME280;56301;56.864;60.554;2023-06-14T00:05:09;99190.34;;;23.67;45.75
69187;BME280;56301;56.864;60.554;2023-06-14T00:07:35;99191.19;;;23.67;45.43
69187;BME280;56301;56.864;60.554;2023-06-14T00:09:57;99191.19;;;23.67;45.95
69187;BME280;56301;56.864;60.554;2023-06-14T00:12:20;99192.16;;;23.66;46.43
69187;BME280;56301;56.864;60.554;2023-06-14T00:14:42;99191.19;;;23.67;46.05
69187;BME280;56301;56.864;60.554;2023-06-14T00:17:05;99193.03;;;23.67;45.88
69187;BME280;56301;56.864;60.554;2023-06-14T00:19:28;99196.72;;;23.66;46.06
69187;BME280;56301;56.864;60.554;2023-06-14T00:21:50;99197.56;;;23.66;45.82
69187;BME280;56301;56.864;60.554;2023-06-14T00:24:12;99184.78;;;23.68;45.38
69187;BME280;56301;56.864;60.554;2023-06-14T00:26:35;99193.88;;;23.67;46.38
69187;BME280;56301;56.864;60.554;2023-06-14T00:28:57;99193.88;;;23.67;45.84
69187;BME280;56301;56.864;60.554;2023-06-14T00:31:22;99204.69;;;23.67;45.85
69187;BME280;56301;56.864;60.554;2023-06-14T00:33:45;99198.44;;;23.67;45.90
69187;BME280;56301;56.864;60.554;2023-06-14T00:36:08;99194.03;;;23.66;46.05
69187;BME280;56301;56.864;60.554;2023-06-14T00:38:30;99190.34;;;23.67;46.05
69187;BME280;56301;56.864;60.554;2023-06-14T00:40:53;99193.88;;;23.67;45.64
69187;BME280;56301;56.864;60.554;2023-06-14T00:43:15;99188.63;;;23.66;45.85
69187;BME280;56301;56.864;60.554;2023-06-14T00:45:39;99196.72;;;23.66;45.54
69187;BME280;56301;56.864;60.554;2023-06-14T00:48:03;99191.50;;;23.64;44.97
69187;BME280;56301;56.864;60.554;2023-06-14T00:50:26;99187.94;;;23.64;44.96
69187;BME280;56301;56.864;60.554;2023-06-14T00:52:49;99187.09;;;23.63;44.58
69187;BME280;56301;56.864;60.554;2023-06-14T00:55:11;99194.22;;;23.64;44.99
69187;BME280;56301;56.864;60.554;2023-06-14T00:57:34;99184.25;;;23.65;45.49
69187;BME280;56301;56.864;60.554;2023-06-14T00:59:56;99183.41;;;23.64;45.20
69187;BME280;56301;56.864;60.554;2023-06-14T01:02:19;99180.69;;;23.64;45.53
69187;BME280;56301;56.864;60.554;2023-06-14T01:04:41;99172.59;;;23.64;45.13
69187;BME280;56301;56.864;60.554;2023-06-14T01:07:54;99181.69;;;23.63;45.74
69187;BME280;56301;56.864;60.554;2023-06-14T01:14:50;99181.38;;;23.66;45.57
69187;BME280;56301;56.864;60.554;2023-06-14T01:17:16;99177.81;;;23.66;45.79
69187;BME280;56301;56.864;60.554;2023-06-14T01:19:38;99187.94;;;23.64;45.55
69187;BME280;56301;56.864;60.554;2023-06-14T01:22:02;99182.72;;;23.62;45.59
69187;BME280;56301;56.864;60.554;2023-06-14T01:24:24;99183.41;;;23.64;45.13
69187;BME280;56301;56.864;60.554;2023-06-14T01:26:48;99181.69;;;23.63;45.26
69187;BME280;56301;56.864;60.554;2023-06-14T01:29:10;99174.59;;;23.62;45.39
69187;BME280;56301;56.864;60.554;2023-06-14T01:31:33;99177.13;;;23.64;45.26
69187;BME280;56301;56.864;60.554;2023-06-14T01:33:56;99171.91;;;23.62;45.25
69187;BME280;56301;56.864;60.554;2023-06-14T01:36:19;99179.00;;;23.63;44.94
69187;BME280;56301;56.864;60.554;2023-06-14T01:38:42;99178.16;;;23.63;45.42
69187;BME280;56301;56.864;60.554;2023-06-14T01:41:05;99178.00;;;23.64;45.27
69187;BME280;56301;56.864;60.554;2023-06-14T01:43:29;99181.03;;;23.61;45.11
69187;BME280;56301;56.864;60.554;2023-06-14T01:45:53;99185.41;;;23.62;45.34
69187;BME280;56301;56.864;60.554;2023-06-14T01:48:15;99184.38;;;23.63;46.30
69187;BME280;56301;56.864;60.554;2023-06-14T01:50:38;99182.53;;;23.64;45.99
69187;BME280;56301;56.864;60.554;2023-06-14T01:53:01;99179.00;;;23.63;45.80
69187;BME280;56301;56.864;60.554;2023-06-14T01:55:23;99187.09;;;23.63;45.85
69187;BME280;56301;56.864;60.554;2023-06-14T01:57:46;99183.41;;;23.64;46.42
69187;BME280;56301;56.864;60.554;2023-06-14T02:00:09;99183.06;;;23.67;45.54
69187;BME280;56301;56.864;60.554;2023-06-14T02:02:35;99175.66;;;23.77;44.72
69187;BME280;56301;56.864;60.554;2023-06-14T02:04:57;99181.25;;;23.76;45.33
69187;BME280;56301;56.864;60.554;2023-06-14T02:07:20;99187.16;;;23.71;44.32
69187;BME280;56301;56.864;60.554;2023-06-14T02:09:42;99179.69;;;23.65;44.78
69187;BME280;56301;56.864;60.554;2023-06-14T02:12:04;99188.00;;;23.72;44.72
69187;BME280;56301;56.864;60.554;2023-06-14T02:14:27;99184.47;;;23.71;44.54
69187;BME280;56301;56.864;60.554;2023-06-14T02:16:51;99177.13;;;23.64;43.75
69187;BME280;56301;56.864;60.554;2023-06-14T02:19:13;99174.28;;;23.57;43.69
69187;BME280;56301;56.864;60.554;2023-06-14T02:21:35;99175.63;;;23.53;43.54
69187;BME280;56301;56.864;60.554;2023-06-14T02:23:58;99177.63;;;23.51;42.84
69187;BME280;56301;56.864;60.554;2023-06-14T02:26:20;99171.53;;;23.49;42.85
69187;BME280;56301;56.864;60.554;2023-06-14T02:28:43;99177.94;;;23.48;42.65
69187;BME280;56301;56.864;60.554;2023-06-14T02:31:05;99181.16;;;23.51;43.54
69187;BME280;56301;56.864;60.554;2023-06-14T02:33:28;99175.44;;;23.54;43.38
69187;BME280;56301;56.864;60.554;2023-06-14T02:35:50;99175.94;;;23.58;43.70
69187;BME280;56301;56.864;60.554;2023-06-14T02:38:12;99176.97;;;23.65;43.39
69187;BME280;56301;56.864;60.554;2023-06-14T02:40:35;99166.50;;;23.62;43.80
69187;BME280;56301;56.864;60.554;2023-06-14T02:42:57;99179.69;;;23.65;43.77
69187;BME280;56301;56.864;60.554;2023-06-14T02:45:20;99170.25;;;23.69;44.13
69187;BME280;56301;56.864;60.554;2023-06-14T02:47:43;99173.66;;;23.71;43.84
69187;BME280;56301;56.864;60.554;2023-06-14T02:50:08;99172.25;;;23.67;43.92
69187;BME280;56301;56.864;60.554;2023-06-14T02:52:31;99170.25;;;23.69;44.07
69187;BME280;56301;56.864;60.554;2023-06-14T02:54:53;99176.97;;;23.65;43.76
69187;BME280;56301;56.864;60.554;2023-06-14T02:57:16;99172.59;;;23.64;43.64
69187;BME280;56301;56.864;60.554;2023-06-14T02:59:39;99173.75;;;23.62;43.92
69187;BME280;56301;56.864;60.554;2023-06-14T03:02:01;99171.56;;;23.65;43.64
69187;BME280;56301;56.864;60.554;2023-06-14T03:04:24;99175.66;;;23.69;43.56
69187;BME280;56301;56.864;60.554;2023-06-14T03:06:47;99169.41;;;23.69;43.62
69187;BME280;56301;56.864;60.554;2023-06-14T03:09:10;99172.44;;;23.74;43.38
69187;BME280;56301;56.864;60.554;2023-06-14T03:11:34;99171.78;;;23.72;43.39
69187;BME280;56301;56.864;60.554;2023-06-14T03:13:57;99171.28;;;23.68;43.63
69187;BME280;56301;56.864;60.554;2023-06-14T03:16:21;99167.84;;;23.66;43.77
69187;BME280;56301;56.864;60.554;2023-06-14T03:18:44;99166.88;;;23.67;43.87
69187;BME280;56301;56.864;60.554;2023-06-14T03:21:07;99173.81;;;23.70;43.97
69187;BME280;56301;56.864;60.554;2023-06-14T03:23:29;99168.06;;;23.73;43.88
69187;BME280;56301;56.864;60.554;2023-06-14T03:25:52;99166.22;;;23.73;43.99
69187;BME280;56301;56.864;60.554;2023-06-14T03:28:14;99169.75;;;23.74;43.92
69187;BME280;56301;56.864;60.554;2023-06-14T03:30:37;99167.38;;;23.71;43.75
69187;BME280;56301;56.864;60.554;2023-06-14T03:33:00;99159.28;;;23.71;43.91
69187;BME280;56301;56.864;60.554;2023-06-14T03:35:24;99166.53;;;23.70;44.20
69187;BME280;56301;56.864;60.554;2023-06-14T03:37:46;99170.78;;;23.81;43.86
69187;BME280;56301;56.864;60.554;2023-06-14T03:40:10;99161.16;;;23.78;43.93
69187;BME280;56301;56.864;60.554;2023-06-14T03:42:36;99165.88;;;23.76;44.45
69187;BME280;56301;56.864;60.554;2023-06-14T03:44:59;99166.91;;;23.75;44.49
69187;BME280;56301;56.864;60.554;2023-06-14T03:47:22;99162.34;;;23.76;44.30
69187;BME280;56301;56.864;60.554;2023-06-14T03:49:45;99168.41;;;23.78;44.41
69187;BME280;56301;56.864;60.554;2023-06-14T03:52:07;99165.53;;;23.80;44.66
69187;BME280;56301;56.864;60.554;2023-06-14T03:54:32;99163.88;;;23.78;44.54
69187;BME280;56301;56.864;60.554;2023-06-14T03:56:54;99160.97;;;23.80;44.63
69187;BME280;56301;56.864;60.554;2023-06-14T03:59:17;99157.75;;;23.85;45.04
69187;BME280;56301;56.864;60.554;2023-06-14T04:01:39;99142.75;;;23.82;44.93
69187;BME280;56301;56.864;60.554;2023-06-14T04:04:01;99152.38;;;24.01;46.31
69187;BME280;56301;56.864;60.554;2023-06-14T04:06:24;99156.94;;;24.00;44.99
69187;BME280;56301;56.864;60.554;2023-06-14T04:08:47;99146.47;;;23.97;44.90
69187;BME280;56301;56.864;60.554;2023-06-14T04:11:10;99145.97;;;23.94;45.47
69187;BME280;56301;56.864;60.554;2023-06-14T04:13:32;99142.41;;;23.93;45.14
69187;BME280;56301;56.864;60.554;2023-06-14T04:15:54;99142.56;;;23.92;45.30
69187;BME280;56301;56.864;60.554;2023-06-14T04:18:22;99142.41;;;23.93;45.00
69187;BME280;56301;56.864;60.554;2023-06-14T04:20:45;99147.81;;;23.93;44.89
69187;BME280;56301;56.864;60.554;2023-06-14T04:23:14;99143.41;;;23.92;45.01
69187;BME280;56301;56.864;60.554;2023-06-14T04:25:37;99131.59;;;23.93;44.70
69187;BME280;56301;56.864;60.554;2023-06-14T04:27:59;99131.59;;;23.93;44.40
69187;BME280;56301;56.864;60.554;2023-06-14T04:30:22;99131.59;;;23.93;44.38
69187;BME280;56301;56.864;60.554;2023-06-14T04:32:46;99133.44;;;23.93;44.57
69187;BME280;56301;56.864;60.554;2023-06-14T04:35:09;99126.34;;;23.92;44.43
69187;BME280;56301;56.864;60.554;2023-06-14T04:37:34;99133.44;;;23.93;44.27
69187;BME280;56301;56.864;60.554;2023-06-14T04:39:56;99133.44;;;23.93;44.15
69187;BME280;56301;56.864;60.554;2023-06-14T04:42:19;99129.75;;;23.94;44.46
69187;BME280;56301;56.864;60.554;2023-06-14T04:44:44;99119.94;;;23.93;44.93
69187;BME280;56301;56.864;60.554;2023-06-14T04:47:08;99121.63;;;23.94;45.16
69187;BME280;56301;56.864;60.554;2023-06-14T04:49:31;99118.09;;;23.93;44.97
69187;BME280;56301;56.864;60.554;2023-06-14T04:51:56;99123.31;;;23.95;45.15
69187;BME280;56301;56.864;60.554;2023-06-14T04:54:18;99117.06;;;23.94;45.18
69187;BME280;56301;56.864;60.554;2023-06-14T04:56:42;99115.22;;;23.95;45.38
69187;BME280;56301;56.864;60.554;2023-06-14T04:59:06;99111.47;;;23.96;45.71
69187;BME280;56301;56.864;60.554;2023-06-14T05:01:28;99122.28;;;23.96;45.01
69187;BME280;56301;56.864;60.554;2023-06-14T05:03:51;99110.50;;;23.97;45.47
69187;BME280;56301;56.864;60.554;2023-06-14T05:06:13;99111.16;;;23.99;45.00
69187;BME280;56301;56.864;60.554;2023-06-14T05:08:36;99113.84;;;23.99;45.24
69187;BME280;56301;56.864;60.554;2023-06-14T05:10:58;99104.06;;;23.98;45.05
69187;BME280;56301;56.864;60.554;2023-06-14T05:13:21;99111.97;;;23.99;45.06
69187;BME280;56301;56.864;60.554;2023-06-14T05:15:45;99096.59;;;24.00;45.11
69187;BME280;56301;56.864;60.554;2023-06-14T05:18:07;99098.31;;;24.01;45.30
69187;BME280;56301;56.864;60.554;2023-06-14T05:20:30;99090.22;;;24.01;45.43
69187;BME280;56301;56.864;60.554;2023-06-14T05:22:52;99091.06;;;24.01;45.03
69187;BME280;56301;56.864;60.554;2023-06-14T05:25:15;99076.50;;;24.02;44.75
69187;BME280;56301;56.864;60.554;2023-06-14T05:27:37;99081.75;;;24.04;44.93
69187;BME280;56301;56.864;60.554;2023-06-14T05:30:00;99077.19;;;24.05;45.47
69187;BME280;56301;56.864;60.554;2023-06-14T05:32:22;99072.63;;;24.05;44.91
69187;BME280;56301;56.864;60.554;2023-06-14T05:34:45;99067.22;;;24.05;45.21
69187;BME280;56301;56.864;60.554;2023-06-14T05:37:07;99068.91;;;24.06;44.75
69187;BME280;56301;56.864;60.554;2023-06-14T05:39:30;99071.44;;;24.08;44.87
69187;BME280;56301;56.864;60.554;2023-06-14T05:41:52;99064.19;;;24.08;45.01
69187;BME280;56301;56.864;60.554;2023-06-14T05:44:14;99067.72;;;24.09;44.82
69187;BME280;56301;56.864;60.554;2023-06-14T05:46:37;99062.13;;;24.10;45.16
69187;BME280;56301;56.864;60.554;2023-06-14T05:48:59;99063.84;;;24.11;44.95
69187;BME280;56301;56.864;60.554;2023-06-14T05:51:22;99060.13;;;24.12;44.69
69187;BME280;56301;56.864;60.554;2023-06-14T05:53:45;99052.00;;;24.12;45.00
69187;BME280;56301;56.864;60.554;2023-06-14T05:56:08;99050.97;;;24.13;44.82
69187;BME280;56301;56.864;60.554;2023-06-14T05:58:30;99045.41;;;24.15;44.90
69187;BME280;56301;56.864;60.554;2023-06-14T06:00:53;99046.91;;;24.17;44.84
69187;BME280;56301;56.864;60.554;2023-06-14T06:03:18;99037.13;;;24.16;44.87
69187;BME280;56301;56.864;60.554;2023-06-14T06:05:41;99043.22;;;24.18;44.68
69187;BME280;56301;56.864;60.554;2023-06-14T06:08:03;99036.94;;;24.18;44.57
69187;BME280;56301;56.864;60.554;2023-06-14T06:10:26;99031.38;;;24.19;44.67
69187;BME280;56301;56.864;60.554;2023-06-14T06:12:48;99024.94;;;24.20;44.92
69187;BME280;56301;56.864;60.554;2023-06-14T06:15:10;99027.44;;;24.22;44.56
69187;BME280;56301;56.864;60.554;2023-06-14T06:17:33;99023.75;;;24.23;44.52
69187;BME280;56301;56.864;60.554;2023-06-14T06:19:55;99018.34;;;24.23;44.84
69187;BME280;56301;56.864;60.554;2023-06-14T06:22:18;99022.72;;;24.24;44.71
69187;BME280;56301;56.864;60.554;2023-06-14T06:24:40;99019.84;;;24.25;44.44
69187;BME280;56301;56.864;60.554;2023-06-14T06:27:03;99023.56;;;24.24;44.74
69187;BME280;56301;56.864;60.554;2023-06-14T06:29:25;99016.97;;;24.27;44.77
69187;BME280;56301;56.864;60.554;2023-06-14T06:31:48;99020.53;;;24.27;44.90
69187;BME280;56301;56.864;60.554;2023-06-14T06:34:10;99011.38;;;24.29;44.79
69187;BME280;56301;56.864;60.554;2023-06-14T06:36:33;99007.69;;;24.30;44.36
69187;BME280;56301;56.864;60.554;2023-06-14T06:38:56;99005.81;;;24.30;44.36
69187;BME280;56301;56.864;60.554;2023-06-14T06:41:18;98997.50;;;24.32;44.81
69187;BME280;56301;56.864;60.554;2023-06-14T06:43:41;99002.75;;;24.33;44.77
69187;BME280;56301;56.864;60.554;2023-06-14T06:46:05;98990.91;;;24.34;44.40
69187;BME280;56301;56.864;60.554;2023-06-14T06:48:27;98993.44;;;24.36;44.86
69187;BME280;56301;56.864;60.554;2023-06-14T06:50:50;98983.47;;;24.36;44.64
69187;BME280;56301;56.864;60.554;2023-06-14T06:53:12;98984.31;;;24.37;44.18
69187;BME280;56301;56.864;60.554;2023-06-14T06:55:35;98984.13;;;24.38;44.71
69187;BME280;56301;56.864;60.554;2023-06-14T06:57:57;98983.16;;;24.39;44.67
69187;BME280;56301;56.864;60.554;2023-06-14T07:00:20;98976.88;;;24.39;44.69
69187;BME280;56301;56.864;60.554;2023-06-14T07:02:42;98965.06;;;24.40;44.80
69187;BME280;56301;56.864;60.554;2023-06-14T07:05:05;98971.13;;;24.42;44.39
69187;BME280;56301;56.864;60.554;2023-06-14T07:07:27;98973.66;;;24.43;44.35
69187;BME280;56301;56.864;60.554;2023-06-14T07:09:50;98958.28;;;24.44;44.93
69187;BME280;56301;56.864;60.554;2023-06-14T07:12:13;98955.41;;;24.45;44.20
69187;BME280;56301;56.864;60.554;2023-06-14T07:14:36;98952.69;;;24.45;44.68
69187;BME280;56301;56.864;60.554;2023-06-14T07:16:58;98963.31;;;24.47;44.40
69187;BME280;56301;56.864;60.554;2023-06-14T07:19:20;98956.91;;;24.48;44.50
69187;BME280;56301;56.864;60.554;2023-06-14T07:21:43;98948.81;;;24.48;44.34
69187;BME280;56301;56.864;60.554;2023-06-14T07:24:06;98946.75;;;24.50;44.54
69187;BME280;56301;56.864;60.554;2023-06-14T07:26:28;98943.03;;;24.51;44.72
69187;BME280;56301;56.864;60.554;2023-06-14T07:28:51;98948.06;;;24.54;44.53
69187;BME280;56301;56.864;60.554;2023-06-14T07:31:13;98936.41;;;24.54;44.53
69187;BME280;56301;56.864;60.554;2023-06-14T07:33:36;98938.28;;;24.53;44.50
69187;BME280;56301;56.864;60.554;2023-06-14T07:35:58;98930.16;;;24.53;44.67
69187;BME280;56301;56.864;60.554;2023-06-14T07:38:21;98930.16;;;24.53;44.25
69187;BME280;56301;56.864;60.554;2023-06-14T07:40:44;98913.94;;;24.53;44.77
69187;BME280;56301;56.864;60.554;2023-06-14T07:43:07;98911.91;;;24.55;44.74
69187;BME280;56301;56.864;60.554;2023-06-14T07:45:30;98919.00;;;24.56;44.60
69187;BME280;56301;56.864;60.554;2023-06-14T07:47:52;98906.97;;;24.59;44.39
69187;BME280;56301;56.864;60.554;2023-06-14T07:50:15;98912.97;;;24.46;43.52
69187;BME280;56301;56.864;60.554;2023-06-14T07:52:37;98906.50;;;23.60;44.33
69187;BME280;56301;56.864;60.554;2023-06-14T07:55:00;98902.03;;;23.12;44.65
69187;BME280;56301;56.864;60.554;2023-06-14T07:57:22;98899.63;;;22.76;44.58
69187;BME280;56301;56.864;60.554;2023-06-14T07:59:45;98906.75;;;23.18;46.38
69187;BME280;56301;56.864;60.554;2023-06-14T08:02:07;98902.16;;;23.35;48.22
69187;BME280;56301;56.864;60.554;2023-06-14T08:04:30;98894.03;;;23.59;47.95
69187;BME280;56301;56.864;60.554;2023-06-14T08:06:53;98892.16;;;23.60;46.57
69187;BME280;56301;56.864;60.554;2023-06-14T08:09:16;98895.44;;;22.90;46.77
69187;BME280;56301;56.864;60.554;2023-06-14T08:11:39;98886.47;;;22.73;46.50
69187;BME280;56301;56.864;60.554;2023-06-14T08:14:01;98894.56;;;22.56;46.50
69187;BME280;56301;56.864;60.554;2023-06-14T08:16:24;98876.34;;;22.50;46.17
69187;BME280;56301;56.864;60.554;2023-06-14T08:18:46;98882.59;;;22.51;45.96
69187;BME280;56301;56.864;60.554;2023-06-14T08:21:08;98873.84;;;22.49;45.88
69187;BME280;56301;56.864;60.554;2023-06-14T08:23:31;98871.97;;;22.41;46.15
69187;BME280;56301;56.864;60.554;2023-06-14T08:25:53;98876.16;;;22.27;45.29
69187;BME280;56301;56.864;60.554;2023-06-14T08:28:16;98875.97;;;22.29;45.75
69187;BME280;56301;56.864;60.554;2023-06-14T08:30:38;98880.38;;;22.30;45.84
69187;BME280;56301;56.864;60.554;2023-06-14T08:33:01;98868.38;;;22.16;45.63
69187;BME280;56301;56.864;60.554;2023-06-14T08:35:23;98867.03;;;22.28;46.25
69187;BME280;56301;56.864;60.554;2023-06-14T08:37:46;98866.84;;;22.22;45.52
69187;BME280;56301;56.864;60.554;2023-06-14T08:40:30;98855.09;;;22.39;45.85
69187;BME280;56301;56.864;60.554;2023-06-14T08:42:52;98858.97;;;22.28;45.91
69187;BME280;56301;56.864;60.554;2023-06-14T08:45:15;98854.06;;;22.16;45.81
69187;BME280;56301;56.864;60.554;2023-06-14T08:47:37;98850.38;;;22.25;45.73
69187;BME280;56301;56.864;60.554;2023-06-14T08:50:00;98855.69;;;22.08;45.27
69187;BME280;56301;56.864;60.554;2023-06-14T08:52:23;98847.00;;;22.23;45.02
69187;BME280;56301;56.864;60.554;2023-06-14T08:54:46;98855.59;;;22.26;45.97
69187;BME280;56301;56.864;60.554;2023-06-14T08:57:10;98849.69;;;22.23;45.15
69187;BME280;56301;56.864;60.554;2023-06-14T08:59:33;98851.38;;;22.24;45.96
69187;BME280;56301;56.864;60.554;2023-06-14T09:01:56;98835.72;;;22.19;44.92
69187;BME280;56301;56.864;60.554;2023-06-14T09:04:18;98836.03;;;22.16;45.80
69187;BME280;56301;56.864;60.554;2023-06-14T09:06:41;98824.53;;;22.06;45.50
69187;BME280;56301;56.864;60.554;2023-06-14T09:09:03;98825.88;;;22.02;45.21
69187;BME280;56301;56.864;60.554;2023-06-14T09:11:26;98831.06;;;21.95;45.88
69187;BME280;56301;56.864;60.554;2023-06-14T09:13:49;98818.13;;;22.07;44.95
69187;BME280;56301;56.864;60.554;2023-06-14T09:16:12;98814.25;;;22.01;45.22
69187;BME280;56301;56.864;60.554;2023-06-14T09:18:38;98813.94;;;22.04;45.18
69187;BME280;56301;56.864;60.554;2023-06-14T09:21:00;98811.72;;;22.00;45.55
69187;BME280;56301;56.864;60.554;2023-06-14T09:23:23;98809.84;;;21.92;45.63
69187;BME280;56301;56.864;60.554;2023-06-14T09:25:45;98805.34;;;22.01;44.79
69187;BME280;56301;56.864;60.554;2023-06-14T09:28:08;98805.28;;;21.93;45.35
69187;BME280;56301;56.864;60.554;2023-06-14T09:30:31;98808.78;;;21.77;45.58
69187;BME280;56301;56.864;60.554;2023-06-14T09:32:53;98796.75;;;21.97;45.58
69187;BME280;56301;56.864;60.554;2023-06-14T09:35:17;98796.19;;;21.85;44.96
69187;BME280;56301;56.864;60.554;2023-06-14T09:37:40;98795.72;;;22.06;44.86
69187;BME280;56301;56.864;60.554;2023-06-14T09:40:03;98797.41;;;21.99;45.38
69187;BME280;56301;56.864;60.554;2023-06-14T09:42:25;98792.50;;;21.86;44.66
69187;BME280;56301;56.864;60.554;2023-06-14T09:44:48;98785.41;;;21.85;44.72
69187;BME280;56301;56.864;60.554;2023-06-14T09:47:11;98783.53;;;21.78;44.60
69187;BME280;56301;56.864;60.554;2023-06-14T09:49:34;98779.38;;;21.92;45.29
69187;BME280;56301;56.864;60.554;2023-06-14T09:51:56;98781.34;;;21.81;45.24
69187;BME280;56301;56.864;60.554;2023-06-14T09:54:22;98782.72;;;21.85;44.76
69187;BME280;56301;56.864;60.554;2023-06-14T09:56:48;98774.66;;;21.94;45.14
69187;BME280;56301;56.864;60.554;2023-06-14T09:59:10;98765.72;;;21.93;44.51
69187;BME280;56301;56.864;60.554;2023-06-14T10:01:35;98767.06;;;21.89;45.05
69187;BME280;56301;56.864;60.554;2023-06-14T10:04:02;98759.34;;;21.86;45.78
69187;BME280;56301;56.864;60.554;2023-06-14T10:06:25;98756.47;;;21.79;44.68
69187;BME280;56301;56.864;60.554;2023-06-14T10:08:48;98752.56;;;21.82;45.28
69187;BME280;56301;56.864;60.554;2023-06-14T10:11:12;98745.34;;;21.82;44.53
69187;BME280;56301;56.864;60.554;2023-06-14T10:13:35;98757.13;;;21.81;45.34
69187;BME280;56301;56.864;60.554;2023-06-14T10:15:58;98737.94;;;21.76;45.92
69187;BME280;56301;56.864;60.554;2023-06-14T10:21:27;98736.06;;;21.69;45.24
69187;BME280;56301;56.864;60.554;2023-06-14T10:23:46;98730.34;;;21.72;44.77
69187;BME280;56301;56.864;60.554;2023-06-14T10:26:17;98723.75;;;21.66;45.42
69187;BME280;56301;56.864;60.554;2023-06-14T10:28:40;98716.69;;;21.65;45.26
69187;BME280;56301;56.864;60.554;2023-06-14T10:31:09;98719.09;;;21.84;44.90
69187;BME280;56301;56.864;60.554;2023-06-14T10:36:27;98717.56;;;21.82;44.93
69187;BME280;56301;56.864;60.554;2023-06-14T10:39:10;98715.88;;;21.73;45.39
69187;BME280;56301;56.864;60.554;2023-06-14T10:41:50;98710.31;;;21.66;45.14
69187;BME280;56301;56.864;60.554;2023-06-14T10:46:35;98688.63;;;21.84;45.96
69187;BME280;56301;56.864;60.554;2023-06-14T10:48:57;98693.50;;;21.88;46.01
69187;BME280;56301;56.864;60.554;2023-06-14T10:51:20;98680.91;;;21.97;46.60
69187;BME280;56301;56.864;60.554;2023-06-14T10:53:42;98680.25;;;22.20;47.18
69187;BME280;56301;56.864;60.554;2023-06-14T10:56:08;98681.41;;;22.25;47.80
69187;BME280;56301;56.864;60.554;2023-06-14T10:58:30;98675.53;;;22.30;48.32
69187;BME280;56301;56.864;60.554;2023-06-14T11:00:53;98672.63;;;22.40;49.09
69187;BME280;56301;56.864;60.554;2023-06-14T11:10:36;98663.00;;;22.53;51.33
69187;BME280;56301;56.864;60.554;2023-06-14T11:12:59;98656.97;;;22.51;51.46
69187;BME280;56301;56.864;60.554;2023-06-14T11:15:27;98655.75;;;22.54;51.16
69187;BME280;56301;56.864;60.554;2023-06-14T11:17:53;98649.03;;;22.50;51.81
69187;BME280;56301;56.864;60.554;2023-06-14T11:20:15;98649.38;;;22.47;51.66
69187;BME280;56301;56.864;60.554;2023-06-14T11:22:41;98646.34;;;22.50;52.14
69187;BME280;56301;56.864;60.554;2023-06-14T11:25:03;98637.84;;;22.69;52.02
69187;BME280;56301;56.864;60.554;2023-06-14T11:27:27;98632.59;;;22.92;51.09
69187;BME280;56301;56.864;60.554;2023-06-14T11:29:49;98638.09;;;23.07;50.98
69187;BME280;56301;56.864;60.554;2023-06-14T11:32:11;98630.97;;;23.14;50.78
69187;BME280;56301;56.864;60.554;2023-06-14T11:34:34;98627.72;;;23.19;49.85
69187;BME280;56301;56.864;60.554;2023-06-14T11:36:57;98644.28;;;23.16;50.47
69187;BME280;56301;56.864;60.554;2023-06-14T11:39:23;98626.47;;;22.43;51.08
69187;BME280;56301;56.864;60.554;2023-06-14T11:41:46;98632.81;;;22.66;51.99
69187;BME280;56301;56.864;60.554;2023-06-14T11:44:09;98622.03;;;22.66;51.54
69187;BME280;56301;56.864;60.554;2023-06-14T11:46:31;98629.75;;;22.77;51.35
69187;BME280;56301;56.864;60.554;2023-06-14T11:48:54;98629.00;;;23.00;50.23
69187;BME280;56301;56.864;60.554;2023-06-14T11:51:16;98612.72;;;23.16;50.01
69187;BME280;56301;56.864;60.554;2023-06-14T11:53:39;98617.06;;;23.25;48.41
69187;BME280;56301;56.864;60.554;2023-06-14T11:56:02;98612.63;;;23.33;48.55
69187;BME280;56301;56.864;60.554;2023-06-14T11:58:25;98613.75;;;23.38;48.18
69187;BME280;56301;56.864;60.554;2023-06-14T12:00:51;98605.03;;;23.05;49.00
69187;BME280;56301;56.864;60.554;2023-06-14T12:03:14;98609.59;;;22.49;50.42
69187;BME280;56301;56.864;60.554;2023-06-14T12:05:36;98609.22;;;22.60;51.65
69187;BME280;56301;56.864;60.554;2023-06-14T12:07:59;98601.06;;;22.76;50.85
69187;BME280;56301;56.864;60.554;2023-06-14T12:10:22;98602.66;;;23.02;49.76
69187;BME280;56301;56.864;60.554;2023-06-14T12:12:44;98596.16;;;23.19;49.51
69187;BME280;56301;56.864;60.554;2023-06-14T12:15:07;98600.16;;;23.32;49.06
69187;BME280;56301;56.864;60.554;2023-06-14T12:17:34;98595.72;;;23.39;48.57
69187;BME280;56301;56.864;60.554;2023-06-14T12:19:57;98598.59;;;23.37;48.74
69187;BME280;56301;56.864;60.554;2023-06-14T12:22:19;98583.56;;;23.43;48.32
69187;BME280;56301;56.864;60.554;2023-06-14T12:24:45;98593.13;;;23.45;47.49
69187;BME280;56301;56.864;60.554;2023-06-14T12:27:07;98584.88;;;23.47;47.50
69187;BME280;56301;56.864;60.554;2023-06-14T12:29:30;98582.47;;;23.52;46.91
69187;BME280;56301;56.864;60.554;2023-06-14T12:31:53;98577.13;;;23.44;47.29
69187;BME280;56301;56.864;60.554;2023-06-14T12:34:15;98584.63;;;22.63;48.31
69187;BME280;56301;56.864;60.554;2023-06-14T12:36:39;98577.44;;;22.39;51.10
69187;BME280;56301;56.864;60.554;2023-06-14T12:39:01;98577.53;;;22.62;50.48
69187;BME280;56301;56.864;60.554;2023-06-14T12:41:25;98576.44;;;22.88;49.29
69187;BME280;56301;56.864;60.554;2023-06-14T12:43:48;98573.25;;;23.15;48.51
69187;BME280;56301;56.864;60.554;2023-06-14T12:46:11;98563.56;;;23.29;47.91
69187;BME280;56301;56.864;60.554;2023-06-14T12:48:33;98564.69;;;23.35;47.79